createdAt,value
2022-11-14T00:01:12.361Z,75.43
2022-11-14T00:03:39.621Z,75.26
2022-11-14T00:06:07.750Z,75.52
2022-11-14T00:08:35.281Z,75.03
2022-11-14T00:11:02.336Z,74.83
2022-11-14T00:13:29.489Z,75.10
2022-11-14T00:15:56.782Z,75.05
2022-11-14T00:18:24.177Z,74.71
2022-11-14T00:20:52.489Z,74.84
2022-11-14T00:23:20.740Z,74.48
2022-11-14T00:25:48.410Z,74.42
2022-11-14T00:28:15.896Z,74.75
2022-11-14T00:30:47.671Z,74.76
2022-11-14T00:33:20.005Z,74.53
2022-11-14T00:35:52.594Z,74.58
2022-11-14T00:38:19.690Z,74.75
2022-11-14T00:40:47.095Z,74.84
2022-11-14T00:43:14.143Z,74.08
2022-11-14T00:45:44.211Z,74.37
2022-11-14T00:48:11.326Z,74.56
2022-11-14T00:50:38.374Z,74.98
2022-11-14T00:53:05.520Z,74.42
2022-11-14T00:55:32.884Z,74.87
2022-11-14T00:57:59.941Z,74.50
2022-11-14T01:00:27.077Z,74.66
2022-11-14T01:02:56.861Z,74.76
2022-11-14T01:05:25.240Z,74.64
2022-11-14T01:07:53.264Z,74.50
2022-11-14T01:10:21.277Z,74.59
2022-11-14T01:12:48.738Z,74.50
2022-11-14T01:15:15.828Z,74.51
2022-11-14T01:17:42.965Z,74.61
2022-11-14T01:20:10.292Z,74.73
2022-11-14T01:22:37.468Z,74.64
2022-11-14T01:25:05.192Z,74.53
2022-11-14T01:27:32.507Z,74.40
2022-11-14T01:29:59.595Z,74.51
2022-11-14T01:32:27.091Z,74.42
2022-11-14T01:34:54.284Z,74.50
2022-11-14T01:37:21.556Z,75.06
2022-11-14T01:39:48.685Z,74.67
2022-11-14T01:42:17.589Z,74.93
2022-11-14T01:44:45.113Z,74.27
2022-11-14T01:47:15.355Z,74.53
2022-11-14T01:49:45.409Z,74.38
2022-11-14T01:52:36.089Z,74.32
2022-11-14T01:55:06.507Z,73.96
2022-11-14T01:57:47.228Z,74.39
2022-11-14T02:00:15.051Z,73.86
2022-11-14T02:02:43.349Z,74.49
2022-11-14T02:05:13.210Z,74.06
2022-11-14T02:07:41.236Z,74.11
2022-11-14T02:10:14.855Z,74.02
2022-11-14T02:12:42.075Z,73.75
2022-11-14T02:15:09.853Z,73.74
2022-11-14T02:17:37.000Z,73.63
2022-11-14T02:20:17.076Z,73.39
2022-11-14T02:22:44.154Z,73.67
2022-11-14T02:25:13.529Z,73.46
2022-11-14T02:27:41.466Z,73.12
2022-11-14T02:30:11.908Z,73.46
2022-11-14T02:35:25.992Z,73.55
2022-11-14T02:37:53.163Z,73.12
2022-11-14T02:40:20.418Z,73.36
2022-11-14T02:42:47.524Z,72.93
2022-11-14T02:45:14.773Z,72.99
2022-11-14T02:47:41.939Z,72.71
2022-11-14T02:50:09.475Z,72.04
2022-11-14T02:52:36.537Z,72.22
2022-11-14T02:55:04.669Z,71.66
2022-11-14T02:57:31.781Z,71.42
2022-11-14T02:59:58.807Z,71.76
2022-11-14T03:02:26.131Z,71.55
2022-11-14T03:04:53.372Z,71.99
2022-11-14T03:07:20.479Z,72.07
2022-11-14T03:09:47.553Z,71.70
2022-11-14T03:12:18.722Z,72.02
2022-11-14T03:14:46.089Z,72.18
2022-11-14T03:17:13.196Z,71.89
2022-11-14T03:19:40.392Z,71.83
2022-11-14T03:22:07.479Z,72.09
2022-11-14T03:24:34.561Z,72.59
2022-11-14T03:27:01.712Z,72.49
2022-11-14T03:29:28.939Z,72.87
2022-11-14T03:31:56.059Z,72.95
2022-11-14T03:34:23.104Z,73.02
2022-11-14T03:36:50.118Z,72.95
2022-11-14T03:39:17.152Z,73.09
2022-11-14T03:41:44.192Z,73.40
2022-11-14T03:44:11.611Z,72.95
2022-11-14T03:46:38.810Z,72.81
2022-11-14T03:49:05.966Z,73.07
2022-11-14T03:51:32.995Z,72.83
2022-11-14T03:54:00.055Z,72.75
2022-11-14T03:56:27.174Z,72.39
2022-11-14T03:58:54.270Z,72.01
2022-11-14T04:01:21.367Z,72.36
2022-11-14T04:03:48.459Z,72.06
2022-11-14T04:06:15.500Z,71.99
2022-11-14T04:08:42.664Z,72.53
2022-11-14T04:11:09.759Z,72.41
2022-11-14T04:13:36.875Z,72.21
2022-11-14T04:16:04.382Z,72.47
2022-11-14T04:18:31.653Z,72.44
2022-11-14T04:20:58.934Z,72.23
2022-11-14T04:23:26.133Z,72.55
2022-11-14T04:25:53.477Z,72.13
2022-11-14T04:28:20.529Z,72.50
2022-11-14T04:30:47.614Z,72.82
2022-11-14T04:33:14.702Z,72.53
2022-11-14T04:35:41.803Z,73.14
2022-11-14T04:38:10.075Z,72.88
2022-11-14T04:40:37.169Z,73.29
2022-11-14T04:43:04.278Z,72.92
2022-11-14T04:45:31.512Z,73.63
2022-11-14T04:47:58.614Z,73.83
2022-11-14T04:50:25.633Z,73.93
2022-11-14T04:52:53.731Z,73.91
2022-11-14T04:55:20.802Z,74.03
2022-11-14T04:57:47.879Z,74.17
2022-11-14T05:00:15.300Z,74.19
2022-11-14T05:02:42.323Z,74.20
2022-11-14T05:05:09.471Z,74.37
2022-11-14T05:07:36.658Z,74.73
2022-11-14T05:10:04.508Z,75.06
2022-11-14T05:12:31.649Z,74.68
2022-11-14T05:14:58.833Z,74.84
2022-11-14T05:17:26.269Z,75.16
2022-11-14T05:19:53.447Z,75.29
2022-11-14T05:22:20.620Z,75.29
2022-11-14T05:24:47.651Z,75.63
2022-11-14T05:27:14.676Z,75.71
2022-11-14T05:29:41.740Z,75.59
2022-11-14T05:32:12.393Z,75.07
2022-11-14T05:34:43.290Z,75.92
2022-11-14T05:37:10.453Z,75.63
2022-11-14T05:39:37.521Z,75.39
2022-11-14T05:42:04.816Z,75.45
2022-11-14T05:44:32.151Z,75.51
2022-11-14T05:46:59.201Z,75.55
2022-11-14T05:49:26.259Z,75.45
2022-11-14T05:51:53.374Z,75.32
2022-11-14T05:54:20.472Z,75.18
2022-11-14T05:56:47.540Z,75.21
2022-11-14T05:59:14.773Z,75.29
2022-11-14T06:01:41.999Z,75.47
2022-11-14T06:04:09.123Z,75.69
2022-11-14T06:06:36.175Z,75.68
2022-11-14T06:09:03.212Z,75.61
2022-11-14T06:11:30.274Z,75.10
2022-11-14T06:13:57.356Z,75.27
2022-11-14T06:16:24.726Z,74.82
2022-11-14T06:18:54.998Z,74.93
2022-11-14T06:21:23.828Z,74.81
2022-11-14T06:23:51.149Z,75.09
2022-11-14T06:26:32.521Z,75.03
2022-11-14T06:29:00.646Z,75.00
2022-11-14T06:31:27.942Z,75.31
2022-11-14T06:33:55.153Z,74.79
2022-11-14T06:36:23.018Z,75.00
2022-11-14T06:38:50.106Z,74.74
2022-11-14T06:41:19.475Z,75.39
2022-11-14T06:43:48.690Z,74.54
2022-11-14T06:46:18.637Z,75.13
2022-11-14T06:48:46.720Z,74.78
2022-11-14T06:51:15.299Z,75.15
2022-11-14T06:53:42.999Z,74.84
2022-11-14T06:56:12.770Z,74.94
2022-11-14T06:58:44.329Z,75.39
2022-11-14T07:01:19.262Z,75.23
2022-11-14T07:03:46.783Z,74.89
2022-11-14T07:06:16.430Z,75.06
2022-11-14T07:08:43.739Z,74.68
2022-11-14T07:11:22.671Z,74.77
2022-11-14T07:13:55.001Z,74.50
2022-11-14T07:16:35.447Z,74.90
2022-11-14T07:19:04.995Z,74.61
2022-11-14T07:21:34.549Z,74.62
2022-11-14T07:24:01.739Z,74.22
2022-11-14T07:26:28.790Z,74.63
2022-11-14T07:29:01.777Z,74.45
2022-11-14T07:31:29.409Z,74.23
2022-11-14T07:33:56.526Z,74.46
2022-11-14T07:36:24.219Z,73.85
2022-11-14T07:38:51.323Z,73.72
2022-11-14T07:41:18.564Z,73.49
2022-11-14T07:43:46.086Z,73.43
2022-11-14T07:46:15.369Z,73.88
2022-11-14T07:48:43.009Z,74.00
2022-11-14T07:51:17.931Z,73.42
2022-11-14T07:53:45.439Z,73.80
2022-11-14T07:56:13.141Z,73.34
2022-11-14T07:58:41.477Z,73.34
2022-11-14T08:01:10.859Z,73.21
2022-11-14T08:03:42.339Z,73.71
2022-11-14T08:06:14.434Z,73.80
2022-11-14T08:08:41.500Z,73.28
2022-11-14T08:11:08.627Z,73.23
2022-11-14T08:13:35.773Z,73.41
2022-11-14T08:16:12.291Z,73.37
2022-11-14T08:18:40.870Z,73.07
2022-11-14T08:21:07.935Z,72.74
2022-11-14T08:23:34.949Z,72.92
2022-11-14T08:26:02.066Z,72.55
2022-11-14T08:28:29.321Z,72.66
2022-11-14T08:31:01.320Z,72.82
2022-11-14T08:33:28.430Z,72.44
2022-11-14T08:35:55.977Z,71.94
2022-11-14T08:38:23.149Z,72.40
2022-11-14T08:40:50.191Z,71.93
2022-11-14T08:43:17.206Z,71.93
2022-11-14T08:45:44.313Z,71.45
2022-11-14T08:48:11.460Z,71.18
2022-11-14T08:50:38.524Z,71.42
2022-11-14T08:53:05.552Z,71.30
2022-11-14T08:55:32.811Z,71.40
2022-11-14T08:57:59.849Z,71.42
2022-11-14T09:00:26.978Z,71.37
2022-11-14T09:02:54.053Z,71.49
2022-11-14T09:05:22.123Z,71.32
2022-11-14T09:07:49.155Z,71.41
2022-11-14T09:10:16.225Z,71.05
2022-11-14T09:12:43.363Z,70.89
2022-11-14T09:15:10.464Z,70.88
2022-11-14T09:17:37.528Z,71.00
2022-11-14T09:20:05.057Z,71.21
2022-11-14T09:22:32.115Z,70.49
2022-11-14T09:24:59.165Z,70.40
2022-11-14T09:27:27.035Z,70.15
2022-11-14T09:29:54.225Z,69.85
2022-11-14T09:32:21.280Z,69.93
2022-11-14T09:34:48.296Z,69.48
2022-11-14T09:37:15.413Z,69.34
2022-11-14T09:39:42.501Z,68.82
2022-11-14T09:42:27.824Z,68.55
2022-11-14T09:45:02.501Z,68.25
2022-11-14T09:47:36.878Z,68.34
2022-11-14T09:50:28.844Z,67.98
2022-11-14T09:52:58.054Z,68.39
2022-11-14T09:55:36.306Z,67.81
2022-11-14T09:58:04.468Z,67.59
2022-11-14T10:00:47.305Z,67.62
2022-11-14T10:03:14.254Z,67.41
2022-11-14T10:06:12.374Z,67.08
2022-11-14T10:09:00.004Z,66.47
2022-11-14T10:11:38.980Z,66.33
2022-11-14T10:14:19.069Z,66.49
2022-11-14T10:17:30.788Z,66.28
2022-11-14T10:20:22.092Z,65.81
2022-11-14T10:23:10.680Z,65.58
2022-11-14T10:25:53.994Z,65.50
2022-11-14T10:28:33.349Z,64.88
2022-11-14T10:31:26.934Z,63.48
2022-11-14T10:34:26.384Z,64.08
2022-11-14T10:37:20.276Z,64.20
2022-11-14T10:39:51.460Z,64.47
2022-11-14T10:42:38.838Z,63.63
2022-11-14T10:45:17.245Z,63.78
2022-11-14T10:47:48.821Z,63.44
2022-11-14T10:50:22.116Z,62.97
2022-11-14T10:52:52.911Z,62.62
2022-11-14T10:55:24.818Z,62.76
2022-11-14T10:58:10.155Z,62.17
2022-11-14T11:00:38.355Z,62.57
2022-11-14T11:03:05.619Z,61.97
2022-11-14T11:05:46.419Z,61.25
2022-11-14T11:08:43.161Z,61.02
2022-11-14T11:11:30.060Z,61.07
2022-11-14T11:13:59.567Z,61.12
2022-11-14T11:16:28.508Z,60.88
2022-11-14T11:19:19.509Z,61.02
2022-11-14T11:21:49.064Z,61.23
2022-11-14T11:24:45.538Z,61.52
2022-11-14T11:27:19.036Z,61.75
2022-11-14T11:29:46.634Z,62.27
2022-11-14T11:32:25.099Z,62.58
2022-11-14T11:34:52.298Z,62.38
2022-11-14T11:37:23.251Z,62.51
2022-11-14T11:39:56.402Z,62.38
2022-11-14T11:43:31.934Z,62.52
2022-11-14T11:45:33.276Z,62.76
2022-11-14T11:48:20.657Z,62.55
2022-11-14T11:50:49.361Z,62.56
2022-11-14T11:53:32.216Z,62.64
2022-11-14T11:56:02.469Z,63.14
2022-11-14T11:58:44.575Z,62.85
2022-11-14T12:01:12.757Z,63.40
2022-11-14T12:03:42.744Z,62.92
2022-11-14T12:06:14.473Z,62.99
2022-11-14T12:09:00.224Z,62.88
2022-11-14T12:11:28.043Z,63.08
2022-11-14T12:14:10.269Z,62.86
2022-11-14T12:16:55.910Z,62.51
2022-11-14T12:19:41.848Z,62.38
2022-11-14T12:22:40.669Z,62.33
2022-11-14T12:25:26.094Z,62.32
2022-11-14T12:28:23.728Z,61.64
2022-11-14T12:30:55.362Z,61.82
2022-11-14T12:33:25.174Z,61.81
2022-11-14T12:35:54.658Z,61.44
2022-11-14T12:38:22.765Z,61.25
2022-11-14T12:40:52.522Z,61.10
2022-11-14T12:43:37.259Z,61.33
2022-11-14T12:46:11.397Z,61.09
2022-11-14T12:48:42.760Z,61.28
2022-11-14T12:51:24.916Z,61.59
2022-11-14T12:53:53.459Z,61.06
2022-11-14T12:56:29.289Z,61.39
2022-11-14T12:59:27.498Z,61.03
2022-11-14T13:02:11.029Z,60.52
2022-11-14T13:05:04.271Z,60.43
2022-11-14T13:08:02.642Z,60.65
2022-11-14T13:10:38.133Z,60.29
2022-11-14T13:13:32.032Z,60.76
2022-11-14T13:16:20.099Z,60.06
2022-11-14T13:19:14.779Z,60.46
2022-11-14T13:22:13.331Z,60.57
2022-11-14T13:24:58.815Z,61.04
2022-11-14T13:27:45.229Z,61.18
2022-11-14T13:30:14.108Z,61.48
2022-11-14T13:32:41.062Z,61.35
2022-11-14T13:35:30.254Z,61.98
2022-11-14T13:37:57.369Z,61.78
2022-11-14T13:40:30.873Z,61.87
2022-11-14T13:43:21.111Z,61.69
2022-11-14T13:46:01.322Z,61.52
2022-11-14T13:49:10.059Z,61.77
2022-11-14T13:51:43.204Z,62.24
2022-11-14T13:54:17.889Z,62.20
2022-11-14T13:56:45.356Z,62.62
2022-11-14T13:59:35.074Z,63.21
2022-11-14T14:02:21.100Z,63.46
2022-11-14T14:05:12.623Z,63.53
2022-11-14T14:08:28.030Z,63.73
2022-11-14T14:11:03.962Z,64.04
2022-11-14T14:13:59.919Z,64.05
2022-11-14T14:16:45.789Z,64.20
2022-11-14T14:19:28.614Z,64.47
2022-11-14T14:22:01.523Z,64.46
2022-11-14T14:24:59.604Z,64.63
2022-11-14T14:27:50.833Z,64.35
2022-11-14T14:30:18.520Z,64.39
2022-11-14T14:33:10.863Z,64.54
2022-11-14T14:35:42.035Z,64.63
2022-11-14T14:38:13.192Z,64.68
2022-11-14T14:40:41.191Z,64.67
2022-11-14T14:43:24.083Z,64.85
2022-11-14T14:45:54.845Z,64.83
2022-11-14T14:48:25.151Z,65.12
2022-11-14T14:50:56.755Z,65.29
2022-11-14T14:53:27.152Z,65.44
2022-11-14T14:55:58.114Z,65.92
2022-11-14T14:58:29.454Z,66.08
2022-11-14T15:01:09.335Z,66.66
2022-11-14T15:03:45.114Z,66.44
2022-11-14T15:06:29.833Z,66.86
2022-11-14T15:08:58.457Z,66.60
2022-11-14T15:11:32.263Z,66.84
2022-11-14T15:14:00.969Z,67.19
2022-11-14T15:16:28.582Z,67.04
2022-11-14T15:18:56.673Z,66.92
2022-11-14T15:21:29.125Z,66.82
2022-11-14T15:24:20.712Z,67.02
2022-11-14T15:26:49.863Z,66.85
2022-11-14T15:29:22.262Z,66.73
2022-11-14T15:32:01.906Z,66.90
2022-11-14T15:34:33.907Z,66.85
2022-11-14T15:37:13.156Z,67.15
2022-11-14T15:39:41.142Z,67.07
2022-11-14T15:42:29.605Z,67.39
2022-11-14T15:44:56.940Z,67.63
2022-11-14T15:47:50.473Z,67.49
2022-11-14T15:50:17.440Z,67.78
2022-11-14T15:52:48.794Z,68.03
2022-11-14T15:55:18.004Z,68.21
2022-11-14T15:57:51.687Z,68.50
2022-11-14T16:00:23.519Z,68.49
2022-11-14T16:02:56.432Z,68.33
2022-11-14T16:05:29.290Z,68.46
2022-11-14T16:07:57.212Z,68.43
2022-11-14T16:10:28.244Z,68.81
2022-11-14T16:12:55.310Z,68.40
2022-11-14T16:15:22.750Z,68.50
2022-11-14T16:17:50.589Z,68.94
2022-11-14T16:20:19.669Z,69.18
2022-11-14T16:22:47.823Z,69.03
2022-11-14T16:25:23.260Z,69.34
2022-11-14T16:27:50.406Z,69.48
2022-11-14T16:30:19.494Z,69.37
2022-11-14T16:32:47.931Z,69.02
2022-11-14T16:35:20.992Z,69.19
2022-11-14T16:37:48.464Z,69.38
2022-11-14T16:40:19.692Z,69.85
2022-11-14T16:42:47.014Z,70.08
2022-11-14T16:45:14.435Z,70.03
2022-11-14T16:47:41.622Z,70.15
2022-11-14T16:50:09.365Z,70.12
2022-11-14T16:52:39.223Z,70.11
2022-11-14T16:55:07.374Z,70.25
2022-11-14T16:57:34.664Z,70.90
2022-11-14T17:00:01.893Z,70.51
2022-11-14T17:02:29.033Z,70.91
2022-11-14T17:04:56.147Z,71.26
2022-11-14T17:07:23.313Z,71.84
2022-11-14T17:09:50.400Z,72.27
2022-11-14T17:12:17.433Z,72.73
2022-11-14T17:14:44.521Z,73.00
2022-11-14T17:17:11.582Z,72.59
2022-11-14T17:19:45.606Z,72.73
2022-11-14T17:22:13.540Z,72.71
2022-11-14T17:24:40.793Z,72.76
2022-11-14T17:27:08.346Z,72.87
2022-11-14T17:29:35.740Z,72.96
2022-11-14T17:32:04.122Z,72.66
2022-11-14T17:34:32.125Z,72.67
2022-11-14T17:36:59.235Z,72.54
2022-11-14T17:39:26.392Z,72.83
2022-11-14T17:41:53.734Z,73.06
2022-11-14T17:44:21.054Z,73.04
2022-11-14T17:46:48.276Z,73.13
2022-11-14T17:49:15.333Z,73.08
2022-11-14T17:51:42.358Z,73.02
2022-11-14T17:54:09.627Z,72.49
2022-11-14T17:56:39.954Z,72.97
2022-11-14T17:59:09.751Z,72.45
2022-11-14T18:01:36.883Z,72.27
2022-11-14T18:04:06.286Z,72.31
2022-11-14T18:06:33.858Z,71.96
2022-11-14T18:09:04.905Z,72.15
2022-11-14T18:11:32.531Z,72.01
2022-11-14T18:13:59.680Z,72.12
2022-11-14T18:16:44.468Z,72.58
2022-11-14T18:19:13.846Z,72.58
2022-11-14T18:21:43.174Z,72.24
2022-11-14T18:24:12.541Z,72.06
2022-11-14T18:26:39.679Z,72.52
2022-11-14T18:29:06.849Z,72.53
2022-11-14T18:31:33.899Z,72.35
2022-11-14T18:34:02.611Z,72.24
2022-11-14T18:36:29.671Z,72.51
2022-11-14T18:38:58.056Z,72.68
2022-11-14T18:41:25.176Z,72.96
2022-11-14T18:43:55.872Z,72.98
2022-11-14T18:46:24.563Z,73.17
2022-11-14T18:48:57.245Z,73.25
2022-11-14T18:51:29.500Z,73.03
2022-11-14T18:53:59.066Z,73.04
2022-11-14T18:56:26.339Z,73.11
2022-11-14T18:58:57.025Z,73.00
2022-11-14T19:01:26.426Z,73.06
2022-11-14T19:03:56.864Z,72.83
2022-11-14T19:06:24.351Z,72.67
2022-11-14T19:08:56.603Z,72.25
2022-11-14T19:11:42.437Z,72.43
2022-11-14T19:14:09.825Z,72.78
2022-11-14T19:16:37.698Z,73.47
2022-11-14T19:19:05.546Z,73.15
2022-11-14T19:21:32.750Z,73.63
2022-11-14T19:24:00.221Z,73.81
2022-11-14T19:26:28.100Z,73.92
2022-11-14T19:28:56.009Z,73.71
2022-11-14T19:31:23.571Z,73.59
2022-11-14T19:33:50.629Z,73.63
2022-11-14T19:36:38.510Z,73.76
2022-11-14T19:39:06.994Z,73.92
2022-11-14T19:41:34.150Z,73.78
2022-11-14T19:44:02.486Z,73.87
2022-11-14T19:46:29.716Z,73.42
2022-11-14T19:48:58.258Z,73.72
2022-11-14T19:51:26.237Z,73.41
2022-11-14T19:53:53.833Z,73.60
2022-11-14T19:56:21.884Z,73.60
2022-11-14T19:58:50.247Z,73.63
2022-11-14T20:01:25.814Z,73.29
2022-11-14T20:03:57.779Z,73.58
2022-11-14T20:06:30.280Z,73.28
2022-11-14T20:08:58.137Z,73.31
2022-11-14T20:11:27.500Z,73.20
2022-11-14T20:13:56.096Z,73.00
2022-11-14T20:16:25.142Z,73.01
2022-11-14T20:18:57.455Z,73.01
2022-11-14T20:21:27.240Z,72.90
2022-11-14T20:23:54.297Z,72.92
2022-11-14T20:26:22.019Z,73.30
2022-11-14T20:28:52.020Z,73.00
2022-11-14T20:31:24.753Z,73.33
2022-11-14T20:33:53.212Z,73.06
2022-11-14T20:36:22.317Z,73.39
2022-11-14T20:38:50.075Z,73.33
2022-11-14T20:41:17.491Z,73.29
2022-11-14T20:43:44.791Z,73.50
2022-11-14T20:46:21.996Z,73.09
2022-11-14T20:48:49.412Z,73.11
2022-11-14T20:51:21.675Z,73.22
2022-11-14T20:53:50.570Z,73.16
2022-11-14T20:56:18.031Z,72.70
2022-11-14T20:58:46.477Z,73.01
2022-11-14T21:01:14.347Z,72.80
2022-11-14T21:03:41.950Z,73.05
2022-11-14T21:06:11.327Z,72.88
2022-11-14T21:08:38.922Z,73.01
2022-11-14T21:11:08.471Z,73.13
2022-11-14T21:13:55.439Z,72.98
2022-11-14T21:16:44.037Z,73.02
2022-11-14T21:19:11.257Z,72.93
2022-11-14T21:21:38.670Z,72.84
2022-11-14T21:24:06.794Z,72.82
2022-11-14T21:26:37.082Z,72.78
2022-11-14T21:29:10.337Z,72.84
2022-11-14T21:31:39.882Z,72.78
2022-11-14T21:34:10.781Z,72.69
2022-11-14T21:36:46.774Z,72.66
2022-11-14T21:39:16.504Z,72.97
2022-11-14T21:41:44.742Z,72.42
2022-11-14T21:44:14.595Z,72.41
2022-11-14T21:46:42.709Z,72.33
2022-11-14T21:49:09.891Z,72.12
2022-11-14T21:51:36.939Z,72.41
2022-11-14T21:54:06.306Z,72.25
2022-11-14T21:56:35.696Z,72.56
2022-11-14T21:59:13.571Z,72.51
2022-11-14T22:02:00.302Z,72.75
2022-11-14T22:04:27.564Z,72.87
2022-11-14T22:06:54.624Z,73.17
2022-11-14T22:09:22.025Z,73.00
2022-11-14T22:11:49.118Z,72.80
2022-11-14T22:14:16.154Z,72.95
2022-11-14T22:16:43.216Z,72.90
2022-11-14T22:19:10.437Z,72.75
2022-11-14T22:21:37.533Z,72.73
2022-11-14T22:24:04.973Z,72.73
2022-11-14T22:26:35.251Z,72.90
2022-11-14T22:29:02.339Z,72.78
2022-11-14T22:31:29.411Z,72.78
2022-11-14T22:33:57.671Z,72.76
2022-11-14T22:36:25.980Z,72.97
2022-11-14T22:38:54.483Z,73.04
2022-11-14T22:41:24.333Z,73.20
2022-11-14T22:43:55.648Z,73.26
2022-11-14T22:46:23.019Z,73.08
2022-11-14T22:48:51.186Z,73.04
2022-11-14T22:51:23.035Z,73.21
2022-11-14T22:53:51.527Z,73.30
2022-11-14T22:56:21.050Z,73.35
2022-11-14T22:58:48.549Z,73.26
2022-11-14T23:01:26.160Z,73.24
2022-11-14T23:03:58.300Z,72.80
2022-11-14T23:06:25.929Z,72.68
2022-11-14T23:08:53.717Z,72.34
2022-11-14T23:11:26.757Z,72.22
2022-11-14T23:13:55.180Z,72.37
2022-11-14T23:16:27.256Z,71.99
2022-11-14T23:18:55.912Z,72.13
2022-11-14T23:21:27.872Z,72.14
2022-11-14T23:24:00.876Z,72.29
2022-11-14T23:26:29.061Z,72.63
2022-11-14T23:28:56.641Z,72.57
2022-11-14T23:31:24.681Z,72.77
2022-11-14T23:33:54.388Z,72.74
2022-11-14T23:36:21.957Z,72.81
2022-11-14T23:38:50.252Z,73.07
2022-11-14T23:41:19.546Z,73.30
2022-11-14T23:43:46.999Z,73.17
2022-11-14T23:46:14.350Z,73.46
2022-11-14T23:48:41.605Z,73.25
2022-11-14T23:51:09.704Z,73.61
2022-11-14T23:53:36.942Z,73.38
2022-11-14T23:56:04.185Z,73.73
2022-11-14T23:58:31.369Z,73.89
